sensor_id;sensor_type;location;lat;lon;timestamp;pressure;altitude;pressure_sealevel;temperature;humidity
36062;BME280;22123;52.412;20.970;2024-03-25T00:00:43;99213.59;;;2.45;100.00
36062;BME280;22123;52.412;20.970;2024-03-25T00:03:09;99207.81;;;2.50;100.00
36062;BME280;22123;52.412;20.970;2024-03-25T00:05:35;99218.69;;;2.56;100.00
36062;BME280;22123;52.412;20.970;2024-03-25T00:08:01;99240.56;;;2.68;100.00
36062;BME280;22123;52.412;20.970;2024-03-25T00:10:27;99196.59;;;2.38;100.00
36062;BME280;22123;52.412;20.970;2024-03-25T00:12:53;99214.66;;;2.52;100.00
36062;BME280;22123;52.412;20.970;2024-03-25T00:15:19;99188.78;;;2.36;100.00
36062;BME280;22123;52.412;20.970;2024-03-25T00:17:48;99205.94;;;2.42;100.00
36062;BME280;22123;52.412;20.970;2024-03-25T00:20:14;99217.22;;;2.44;100.00
36062;BME280;22123;52.412;20.970;2024-03-25T00:22:40;99247.78;;;2.58;100.00
36062;BME280;22123;52.412;20.970;2024-03-25T00:25:07;99251.00;;;2.52;100.00
36062;BME280;22123;52.412;20.970;2024-03-25T00:27:33;99246.59;;;2.42;100.00
36062;BME280;22123;52.412;20.970;2024-03-25T00:29:59;99247.06;;;2.38;100.00
36062;BME280;22123;52.412;20.970;2024-03-25T00:32:25;99252.81;;;2.33;100.00
36062;BME280;22123;52.412;20.970;2024-03-25T00:34:51;99253.56;;;2.25;100.00
36062;BME280;22123;52.412;20.970;2024-03-25T00:37:17;99233.34;;;2.15;100.00
36062;BME280;22123;52.412;20.970;2024-03-25T00:39:43;99233.81;;;2.10;100.00
36062;BME280;22123;52.412;20.970;2024-03-25T00:42:08;99190.91;;;1.87;100.00
36062;BME280;22123;52.412;20.970;2024-03-25T00:44:34;99236.00;;;2.15;100.00
36062;BME280;22123;52.412;20.970;2024-03-25T00:47:00;99186.84;;;1.83;100.00
36062;BME280;22123;52.412;20.970;2024-03-25T00:49:26;99203.56;;;1.93;100.00
36062;BME280;22123;52.412;20.970;2024-03-25T00:51:52;99221.09;;;2.04;100.00
36062;BME280;22123;52.412;20.970;2024-03-25T00:54:18;99195.19;;;1.88;100.00
36062;BME280;22123;52.412;20.970;2024-03-25T00:56:44;99195.50;;;1.85;100.00
36062;BME280;22123;52.412;20.970;2024-03-25T00:59:10;99231.88;;;2.02;100.00
36062;BME280;22123;52.412;20.970;2024-03-25T01:01:35;99226.72;;;2.01;100.00
36062;BME280;22123;52.412;20.970;2024-03-25T01:04:02;99168.22;;;1.65;100.00
36062;BME280;22123;52.412;20.970;2024-03-25T01:06:28;99225.47;;;1.95;100.00
36062;BME280;22123;52.412;20.970;2024-03-25T01:08:54;99210.81;;;1.91;100.00
36062;BME280;22123;52.412;20.970;2024-03-25T01:11:20;99185.22;;;1.72;100.00
36062;BME280;22123;52.412;20.970;2024-03-25T01:13:46;99174.13;;;1.59;100.00
36062;BME280;22123;52.412;20.970;2024-03-25T01:16:11;99196.13;;;1.69;100.00
36062;BME280;22123;52.412;20.970;2024-03-25T01:18:37;99213.28;;;1.74;100.00
36062;BME280;22123;52.412;20.970;2024-03-25T01:21:03;99168.00;;;1.48;100.00
36062;BME280;22123;52.412;20.970;2024-03-25T01:23:29;99188.19;;;1.59;100.00
36062;BME280;22123;52.412;20.970;2024-03-25T01:25:55;99127.06;;;1.23;100.00
36062;BME280;22123;52.412;20.970;2024-03-25T01:28:21;99214.97;;;1.76;100.00
36062;BME280;22123;52.412;20.970;2024-03-25T01:30:47;99213.00;;;1.78;100.00
36062;BME280;22123;52.412;20.970;2024-03-25T01:33:13;99164.38;;;1.49;100.00
36062;BME280;22123;52.412;20.970;2024-03-25T01:35:39;99173.97;;;1.60;100.00
36062;BME280;22123;52.412;20.970;2024-03-25T01:38:05;99212.41;;;1.84;100.00
36062;BME280;22123;52.412;20.970;2024-03-25T01:40:31;99142.75;;;1.44;100.00
36062;BME280;22123;52.412;20.970;2024-03-25T01:42:58;99208.63;;;1.86;100.00
36062;BME280;22123;52.412;20.970;2024-03-25T01:45:25;99203.88;;;1.90;100.00
36062;BME280;22123;52.412;20.970;2024-03-25T01:47:52;99214.19;;;1.93;100.00
36062;BME280;22123;52.412;20.970;2024-03-25T01:50:18;99170.16;;;1.72;100.00
36062;BME280;22123;52.412;20.970;2024-03-25T01:52:44;99152.00;;;1.68;100.00
36062;BME280;22123;52.412;20.970;2024-03-25T01:55:15;99188.47;;;1.94;100.00
36062;BME280;22123;52.412;20.970;2024-03-25T01:57:43;99135.41;;;1.66;100.00
36062;BME280;22123;52.412;20.970;2024-03-25T02:00:11;99195.09;;;2.07;100.00
36062;BME280;22123;52.412;20.970;2024-03-25T02:02:39;99175.34;;;1.92;100.00
36062;BME280;22123;52.412;20.970;2024-03-25T02:05:06;99171.63;;;1.85;100.00
36062;BME280;22123;52.412;20.970;2024-03-25T02:07:32;99203.16;;;2.16;100.00
36062;BME280;22123;52.412;20.970;2024-03-25T02:10:05;99183.38;;;2.10;100.00
36062;BME280;22123;52.412;20.970;2024-03-25T02:12:32;99168.31;;;2.01;100.00
36062;BME280;22123;52.412;20.970;2024-03-25T02:14:59;99205.06;;;2.23;100.00
36062;BME280;22123;52.412;20.970;2024-03-25T02:17:25;99162.31;;;1.99;100.00
36062;BME280;22123;52.412;20.970;2024-03-25T02:19:51;99164.22;;;2.06;100.00
36062;BME280;22123;52.412;20.970;2024-03-25T02:22:17;99199.16;;;2.30;100.00
36062;BME280;22123;52.412;20.970;2024-03-25T02:24:45;99190.56;;;2.18;100.00
36062;BME280;22123;52.412;20.970;2024-03-25T02:27:12;99192.25;;;2.19;100.00
36062;BME280;22123;52.412;20.970;2024-03-25T02:29:38;99144.00;;;1.78;100.00
36062;BME280;22123;52.412;20.970;2024-03-25T02:32:04;99171.16;;;1.89;100.00
36062;BME280;22123;52.412;20.970;2024-03-25T02:34:30;99178.31;;;1.89;100.00
36062;BME280;22123;52.412;20.970;2024-03-25T02:36:56;99189.59;;;1.91;100.00
36062;BME280;22123;52.412;20.970;2024-03-25T02:39:21;99203.41;;;1.95;100.00
36062;BME280;22123;52.412;20.970;2024-03-25T02:41:48;99168.06;;;1.66;100.00
36062;BME280;22123;52.412;20.970;2024-03-25T02:44:14;99171.72;;;1.65;100.00
36062;BME280;22123;52.412;20.970;2024-03-25T02:46:40;99186.34;;;1.69;100.00
36062;BME280;22123;52.412;20.970;2024-03-25T02:49:06;99209.75;;;1.84;100.00
36062;BME280;22123;52.412;20.970;2024-03-25T02:51:32;99178.25;;;1.71;100.00
36062;BME280;22123;52.412;20.970;2024-03-25T02:53:58;99191.22;;;1.74;100.00
36062;BME280;22123;52.412;20.970;2024-03-25T02:56:24;99201.09;;;1.82;100.00
36062;BME280;22123;52.412;20.970;2024-03-25T02:58:50;99173.94;;;1.70;100.00
36062;BME280;22123;52.412;20.970;2024-03-25T03:01:16;99215.88;;;1.94;100.00
36062;BME280;22123;52.412;20.970;2024-03-25T03:03:42;99177.03;;;1.65;100.00
36062;BME280;22123;52.412;20.970;2024-03-25T03:06:08;99199.03;;;1.76;100.00
36062;BME280;22123;52.412;20.970;2024-03-25T03:08:34;99227.03;;;1.88;100.00
36062;BME280;22123;52.412;20.970;2024-03-25T03:11:00;99221.06;;;1.86;100.00
36062;BME280;22123;52.412;20.970;2024-03-25T03:13:26;99188.34;;;1.58;100.00
36062;BME280;22123;52.412;20.970;2024-03-25T03:15:51;99217.91;;;1.72;100.00
36062;BME280;22123;52.412;20.970;2024-03-25T03:18:17;99175.81;;;1.50;100.00
36062;BME280;22123;52.412;20.970;2024-03-25T03:20:43;99221.22;;;1.84;100.00
36062;BME280;22123;52.412;20.970;2024-03-25T03:23:09;99209.94;;;1.72;100.00
36062;BME280;22123;52.412;20.970;2024-03-25T03:25:35;99191.25;;;1.64;100.00
36062;BME280;22123;52.412;20.970;2024-03-25T03:28:01;99195.44;;;1.67;100.00
36062;BME280;22123;52.412;20.970;2024-03-25T03:30:27;99188.47;;;1.66;100.00
36062;BME280;22123;52.412;20.970;2024-03-25T03:32:53;99242.78;;;1.99;100.00
36062;BME280;22123;52.412;20.970;2024-03-25T03:35:19;99219.22;;;1.86;100.00
36062;BME280;22123;52.412;20.970;2024-03-25T03:37:45;99211.56;;;1.83;100.00
36062;BME280;22123;52.412;20.970;2024-03-25T03:40:11;99186.22;;;1.71;100.00
36062;BME280;22123;52.412;20.970;2024-03-25T03:42:37;99197.88;;;1.78;100.00
36062;BME280;22123;52.412;20.970;2024-03-25T03:45:03;99191.38;;;1.72;100.00
36062;BME280;22123;52.412;20.970;2024-03-25T03:47:29;99246.25;;;2.00;100.00
36062;BME280;22123;52.412;20.970;2024-03-25T03:49:55;99240.28;;;1.98;100.00
36062;BME280;22123;52.412;20.970;2024-03-25T03:52:20;99219.81;;;1.80;100.00
36062;BME280;22123;52.412;20.970;2024-03-25T03:54:46;99243.69;;;1.90;100.00
36062;BME280;22123;52.412;20.970;2024-03-25T03:57:12;99215.25;;;1.72;100.00
36062;BME280;22123;52.412;20.970;2024-03-25T03:59:38;99210.81;;;1.63;100.00
36062;BME280;22123;52.412;20.970;2024-03-25T04:02:04;99247.59;;;1.86;100.00
36062;BME280;22123;52.412;20.970;2024-03-25T04:04:30;99204.97;;;1.60;100.00
36062;BME280;22123;52.412;20.970;2024-03-25T04:06:56;99258.38;;;1.84;100.00
36062;BME280;22123;52.412;20.970;2024-03-25T04:09:22;99259.19;;;1.85;100.00
36062;BME280;22123;52.412;20.970;2024-03-25T04:11:48;99235.09;;;1.68;100.00
36062;BME280;22123;52.412;20.970;2024-03-25T04:14:13;99196.78;;;1.43;100.00
36062;BME280;22123;52.412;20.970;2024-03-25T04:16:39;99253.50;;;1.80;100.00
36062;BME280;22123;52.412;20.970;2024-03-25T04:19:05;99260.59;;;1.79;100.00
36062;BME280;22123;52.412;20.970;2024-03-25T04:21:31;99253.09;;;1.74;100.00
36062;BME280;22123;52.412;20.970;2024-03-25T04:23:57;99255.06;;;1.72;100.00
36062;BME280;22123;52.412;20.970;2024-03-25T04:26:23;99211.03;;;1.42;100.00
36062;BME280;22123;52.412;20.970;2024-03-25T04:28:49;99216.88;;;1.46;100.00
36062;BME280;22123;52.412;20.970;2024-03-25T04:31:15;99184.28;;;1.26;100.00
36062;BME280;22123;52.412;20.970;2024-03-25T04:33:41;99216.72;;;1.47;100.00
36062;BME280;22123;52.412;20.970;2024-03-25T04:36:07;99263.56;;;1.76;100.00
36062;BME280;22123;52.412;20.970;2024-03-25T04:38:33;99229.69;;;1.60;100.00
36062;BME280;22123;52.412;20.970;2024-03-25T04:40:58;99216.28;;;1.52;100.00
36062;BME280;22123;52.412;20.970;2024-03-25T04:43:24;99269.97;;;1.83;100.00
36062;BME280;22123;52.412;20.970;2024-03-25T04:45:50;99214.06;;;1.57;100.00
36062;BME280;22123;52.412;20.970;2024-03-25T04:48:16;99243.44;;;1.73;100.00
36062;BME280;22123;52.412;20.970;2024-03-25T04:50:42;99228.13;;;1.67;100.00
36062;BME280;22123;52.412;20.970;2024-03-25T04:53:08;99220.75;;;1.61;100.00
36062;BME280;22123;52.412;20.970;2024-03-25T04:55:34;99237.03;;;1.76;100.00
36062;BME280;22123;52.412;20.970;2024-03-25T04:58:00;99226.03;;;1.71;100.00
36062;BME280;22123;52.412;20.970;2024-03-25T05:00:25;99220.84;;;1.69;100.00
36062;BME280;22123;52.412;20.970;2024-03-25T05:02:51;99261.00;;;1.94;100.00
36062;BME280;22123;52.412;20.970;2024-03-25T05:05:17;99215.25;;;1.72;100.00
36062;BME280;22123;52.412;20.970;2024-03-25T05:07:46;99245.88;;;1.95;100.00
36062;BME280;22123;52.412;20.970;2024-03-25T05:10:12;99244.91;;;1.96;100.00
36062;BME280;22123;52.412;20.970;2024-03-25T05:12:38;99245.16;;;2.02;100.00
36062;BME280;22123;52.412;20.970;2024-03-25T05:15:04;99251.53;;;2.09;100.00
36062;BME280;22123;52.412;20.970;2024-03-25T05:17:30;99273.38;;;2.31;100.00
36062;BME280;22123;52.412;20.970;2024-03-25T05:19:56;99210.94;;;1.99;100.00
36062;BME280;22123;52.412;20.970;2024-03-25T05:22:22;99238.50;;;2.16;100.00
36062;BME280;22123;52.412;20.970;2024-03-25T05:24:48;99243.63;;;2.28;100.00
36062;BME280;22123;52.412;20.970;2024-03-25T05:27:20;99272.25;;;2.52;100.00
36062;BME280;22123;52.412;20.970;2024-03-25T05:29:46;99227.84;;;2.26;100.00
36062;BME280;22123;52.412;20.970;2024-03-25T05:32:12;99213.19;;;2.22;100.00
36062;BME280;22123;52.412;20.970;2024-03-25T05:34:38;99274.97;;;2.70;100.00
36062;BME280;22123;52.412;20.970;2024-03-25T05:37:04;99276.84;;;2.77;100.00
36062;BME280;22123;52.412;20.970;2024-03-25T05:39:30;99256.34;;;2.70;100.00
36062;BME280;22123;52.412;20.970;2024-03-25T05:41:56;99226.06;;;2.63;100.00
36062;BME280;22123;52.412;20.970;2024-03-25T05:44:21;99250.13;;;2.79;100.00
36062;BME280;22123;52.412;20.970;2024-03-25T05:46:47;99235.16;;;2.78;100.00
36062;BME280;22123;52.412;20.970;2024-03-25T05:49:13;99242.91;;;2.89;100.00
36062;BME280;22123;52.412;20.970;2024-03-25T05:51:39;99244.34;;;3.02;100.00
36062;BME280;22123;52.412;20.970;2024-03-25T05:54:05;99280.81;;;3.27;100.00
36062;BME280;22123;52.412;20.970;2024-03-25T05:56:58;99254.13;;;3.19;100.00
36062;BME280;22123;52.412;20.970;2024-03-25T05:59:24;98869.50;;;0.82;100.00
36062;BME280;22123;52.412;20.970;2024-03-25T06:01:50;99200.22;;;2.91;100.00
36062;BME280;22123;52.412;20.970;2024-03-25T06:04:15;99237.34;;;3.19;100.00
36062;BME280;22123;52.412;20.970;2024-03-25T06:06:41;99280.38;;;3.40;100.00
36062;BME280;22123;52.412;20.970;2024-03-25T06:09:07;99242.94;;;3.16;100.00
36062;BME280;22123;52.412;20.970;2024-03-25T06:11:34;99238.88;;;3.03;100.00
36062;BME280;22123;52.412;20.970;2024-03-25T06:14:00;99269.84;;;3.12;100.00
36062;BME280;22123;52.412;20.970;2024-03-25T06:16:26;99295.25;;;3.25;100.00
36062;BME280;22123;52.412;20.970;2024-03-25T06:18:52;99244.03;;;2.87;100.00
36062;BME280;22123;52.412;20.970;2024-03-25T06:21:18;99304.19;;;3.24;100.00
36062;BME280;22123;52.412;20.970;2024-03-25T06:23:43;99265.47;;;3.03;100.00
36062;BME280;22123;52.412;20.970;2024-03-25T06:26:09;99264.75;;;3.01;100.00
36062;BME280;22123;52.412;20.970;2024-03-25T06:28:35;99299.84;;;3.23;100.00
36062;BME280;22123;52.412;20.970;2024-03-25T06:31:01;99273.66;;;3.10;100.00
36062;BME280;22123;52.412;20.970;2024-03-25T06:33:27;99310.25;;;3.34;100.00
36062;BME280;22123;52.412;20.970;2024-03-25T06:35:53;99294.38;;;3.24;100.00
36062;BME280;22123;52.412;20.970;2024-03-25T06:38:19;99251.34;;;3.03;100.00
36062;BME280;22123;52.412;20.970;2024-03-25T06:40:45;99319.84;;;3.45;100.00
36062;BME280;22123;52.412;20.970;2024-03-25T06:43:11;99304.53;;;3.47;100.00
36062;BME280;22123;52.412;20.970;2024-03-25T06:45:37;99278.91;;;3.46;100.00
36062;BME280;22123;52.412;20.970;2024-03-25T06:48:03;99289.53;;;3.64;100.00
36062;BME280;22123;52.412;20.970;2024-03-25T06:50:29;99257.19;;;3.51;100.00
36062;BME280;22123;52.412;20.970;2024-03-25T06:52:55;99282.13;;;3.76;100.00
36062;BME280;22123;52.412;20.970;2024-03-25T06:55:21;99308.72;;;4.02;100.00
36062;BME280;22123;52.412;20.970;2024-03-25T06:57:47;99278.22;;;3.96;100.00
36062;BME280;22123;52.412;20.970;2024-03-25T07:00:13;99319.22;;;4.38;100.00
36062;BME280;22123;52.412;20.970;2024-03-25T07:02:39;99324.28;;;4.49;100.00
36062;BME280;22123;52.412;20.970;2024-03-25T07:05:05;99325.97;;;4.59;100.00
36062;BME280;22123;52.412;20.970;2024-03-25T07:07:31;99286.97;;;4.49;100.00
36062;BME280;22123;52.412;20.970;2024-03-25T07:09:57;99286.47;;;4.54;100.00
36062;BME280;22123;52.412;20.970;2024-03-25T07:12:23;99325.72;;;4.95;100.00
36062;BME280;22123;52.412;20.970;2024-03-25T07:14:49;99282.69;;;4.81;100.00
36062;BME280;22123;52.412;20.970;2024-03-25T07:17:15;99294.72;;;5.02;100.00
36062;BME280;22123;52.412;20.970;2024-03-25T07:19:41;99280.41;;;5.19;100.00
36062;BME280;22123;52.412;20.970;2024-03-25T07:22:07;99287.41;;;5.37;100.00
36062;BME280;22123;52.412;20.970;2024-03-25T07:24:33;99316.41;;;5.81;100.00
36062;BME280;22123;52.412;20.970;2024-03-25T07:26:59;99303.38;;;6.03;100.00
36062;BME280;22123;52.412;20.970;2024-03-25T07:29:25;99317.72;;;6.10;100.00
36062;BME280;22123;52.412;20.970;2024-03-25T07:31:50;99299.66;;;6.04;100.00
36062;BME280;22123;52.412;20.970;2024-03-25T07:34:16;99275.16;;;6.00;100.00
36062;BME280;22123;52.412;20.970;2024-03-25T07:36:42;99298.94;;;6.26;100.00
36062;BME280;22123;52.412;20.970;2024-03-25T07:39:08;99289.13;;;6.11;100.00
36062;BME280;22123;52.412;20.970;2024-03-25T07:41:34;99311.66;;;6.24;100.00
36062;BME280;22123;52.412;20.970;2024-03-25T07:44:00;99324.84;;;6.26;100.00
36062;BME280;22123;52.412;20.970;2024-03-25T07:46:26;99282.66;;;5.88;100.00
36062;BME280;22123;52.412;20.970;2024-03-25T07:48:52;99315.50;;;6.14;100.00
36062;BME280;22123;52.412;20.970;2024-03-25T07:51:17;99343.50;;;6.42;100.00
36062;BME280;22123;52.412;20.970;2024-03-25T07:53:43;99341.94;;;6.56;100.00
36062;BME280;22123;52.412;20.970;2024-03-25T07:56:09;99328.94;;;6.45;100.00
36062;BME280;22123;52.412;20.970;2024-03-25T07:58:35;99275.59;;;6.20;100.00
36062;BME280;22123;52.412;20.970;2024-03-25T08:01:01;99299.22;;;6.40;100.00
36062;BME280;22123;52.412;20.970;2024-03-25T08:03:27;99316.69;;;6.59;100.00
36062;BME280;22123;52.412;20.970;2024-03-25T08:05:53;99289.50;;;6.47;100.00
36062;BME280;22123;52.412;20.970;2024-03-25T08:08:19;99323.31;;;6.71;100.00
36062;BME280;22123;52.412;20.970;2024-03-25T08:10:45;99325.06;;;6.87;100.00
36062;BME280;22123;52.412;20.970;2024-03-25T08:13:11;99316.91;;;7.04;100.00
36062;BME280;22123;52.412;20.970;2024-03-25T08:15:37;99322.94;;;7.29;100.00
36062;BME280;22123;52.412;20.970;2024-03-25T08:18:03;99331.00;;;7.67;100.00
36062;BME280;22123;52.412;20.970;2024-03-25T08:20:29;99348.47;;;8.16;100.00
36062;BME280;22123;52.412;20.970;2024-03-25T08:22:55;99313.59;;;8.31;100.00
36062;BME280;22123;52.412;20.970;2024-03-25T08:25:21;99285.41;;;8.35;100.00
36062;BME280;22123;52.412;20.970;2024-03-25T08:27:46;99297.94;;;8.64;100.00
36062;BME280;22123;52.412;20.970;2024-03-25T08:30:12;99329.81;;;9.04;100.00
36062;BME280;22123;52.412;20.970;2024-03-25T08:32:38;99307.22;;;8.98;100.00
36062;BME280;22123;52.412;20.970;2024-03-25T08:35:04;99304.94;;;8.95;100.00
36062;BME280;22123;52.412;20.970;2024-03-25T08:37:30;99300.69;;;9.08;100.00
36062;BME280;22123;52.412;20.970;2024-03-25T08:39:56;99325.78;;;9.36;100.00
36062;BME280;22123;52.412;20.970;2024-03-25T08:42:22;99344.84;;;9.63;100.00
36062;BME280;22123;52.412;20.970;2024-03-25T08:44:48;99352.75;;;9.71;100.00
36062;BME280;22123;52.412;20.970;2024-03-25T08:47:14;99324.88;;;9.51;100.00
36062;BME280;22123;52.412;20.970;2024-03-25T08:49:40;99339.56;;;9.12;100.00
36062;BME280;22123;52.412;20.970;2024-03-25T08:52:05;99339.00;;;8.80;100.00
36062;BME280;22123;52.412;20.970;2024-03-25T08:54:31;99321.31;;;8.85;100.00
36062;BME280;22123;52.412;20.970;2024-03-25T08:56:57;99310.88;;;8.76;100.00
36062;BME280;22123;52.412;20.970;2024-03-25T08:59:23;99306.72;;;8.73;100.00
36062;BME280;22123;52.412;20.970;2024-03-25T09:01:49;99328.47;;;8.78;100.00
36062;BME280;22123;52.412;20.970;2024-03-25T09:04:15;99355.78;;;9.03;100.00
36062;BME280;22123;52.412;20.970;2024-03-25T09:06:41;99346.88;;;9.39;100.00
36062;BME280;22123;52.412;20.970;2024-03-25T09:09:07;99322.22;;;9.79;100.00
36062;BME280;22123;52.412;20.970;2024-03-25T09:11:32;99334.00;;;10.35;100.00
36062;BME280;22123;52.412;20.970;2024-03-25T09:13:58;99354.47;;;11.33;100.00
36062;BME280;22123;52.412;20.970;2024-03-25T09:16:24;99325.41;;;11.28;100.00
36062;BME280;22123;52.412;20.970;2024-03-25T09:18:51;99342.44;;;12.22;100.00
36062;BME280;22123;52.412;20.970;2024-03-25T09:21:17;99322.25;;;12.97;100.00
36062;BME280;22123;52.412;20.970;2024-03-25T09:23:43;99321.88;;;13.25;100.00
36062;BME280;22123;52.412;20.970;2024-03-25T09:26:09;99309.66;;;13.22;100.00
36062;BME280;22123;52.412;20.970;2024-03-25T09:28:35;99301.44;;;13.68;100.00
36062;BME280;22123;52.412;20.970;2024-03-25T09:31:01;99330.53;;;13.98;100.00
36062;BME280;22123;52.412;20.970;2024-03-25T09:33:27;99314.53;;;15.61;100.00
36062;BME280;22123;52.412;20.970;2024-03-25T09:35:52;99327.69;;;17.46;73.92
36062;BME280;22123;52.412;20.970;2024-03-25T09:38:18;99315.81;;;18.20;64.82
36062;BME280;22123;52.412;20.970;2024-03-25T09:40:44;99330.03;;;17.88;57.34
36062;BME280;22123;52.412;20.970;2024-03-25T09:43:18;99314.38;;;16.22;56.90
36062;BME280;22123;52.412;20.970;2024-03-25T09:45:47;99318.16;;;16.09;62.17
36062;BME280;22123;52.412;20.970;2024-03-25T09:48:16;99303.88;;;17.53;57.42
36062;BME280;22123;52.412;20.970;2024-03-25T09:50:44;99313.84;;;18.76;53.33
36062;BME280;22123;52.412;20.970;2024-03-25T09:53:11;99267.84;;;17.97;52.90
36062;BME280;22123;52.412;20.970;2024-03-25T09:55:37;99324.00;;;18.03;51.39
36062;BME280;22123;52.412;20.970;2024-03-25T09:58:03;99341.19;;;16.95;51.96
36062;BME280;22123;52.412;20.970;2024-03-25T10:00:30;99318.22;;;15.25;55.05
36062;BME280;22123;52.412;20.970;2024-03-25T10:02:56;99358.38;;;14.23;61.98
36062;BME280;22123;52.412;20.970;2024-03-25T10:05:22;99356.16;;;13.31;65.94
36062;BME280;22123;52.412;20.970;2024-03-25T10:07:48;99359.78;;;12.60;70.78
36062;BME280;22123;52.412;20.970;2024-03-25T10:10:18;99362.41;;;11.94;75.32
36062;BME280;22123;52.412;20.970;2024-03-25T10:12:44;99341.19;;;11.38;72.48
36062;BME280;22123;52.412;20.970;2024-03-25T10:15:17;99313.19;;;10.50;80.72
36062;BME280;22123;52.412;20.970;2024-03-25T10:17:43;99377.78;;;10.57;81.04
36062;BME280;22123;52.412;20.970;2024-03-25T10:20:15;99371.19;;;10.31;85.38
36062;BME280;22123;52.412;20.970;2024-03-25T10:22:45;99370.94;;;10.26;84.97
36062;BME280;22123;52.412;20.970;2024-03-25T10:25:26;99373.81;;;10.53;90.02
36062;BME280;22123;52.412;20.970;2024-03-25T10:27:59;99360.81;;;11.11;89.38
36062;BME280;22123;52.412;20.970;2024-03-25T10:30:26;99363.97;;;13.08;82.23
36062;BME280;22123;52.412;20.970;2024-03-25T10:33:03;99342.75;;;15.00;62.46
36062;BME280;22123;52.412;20.970;2024-03-25T10:35:31;99359.78;;;14.88;57.21
36062;BME280;22123;52.412;20.970;2024-03-25T10:38:01;99334.34;;;14.89;61.06
36062;BME280;22123;52.412;20.970;2024-03-25T10:40:30;99318.47;;;14.37;61.29
36062;BME280;22123;52.412;20.970;2024-03-25T10:45:33;99355.53;;;12.91;67.17
36062;BME280;22123;52.412;20.970;2024-03-25T10:48:12;99366.66;;;12.62;70.54
36062;BME280;22123;52.412;20.970;2024-03-25T10:50:42;99341.03;;;12.20;68.84
36062;BME280;22123;52.412;20.970;2024-03-25T10:53:10;99363.56;;;12.45;70.64
36062;BME280;22123;52.412;20.970;2024-03-25T10:55:36;99326.13;;;12.69;68.95
36062;BME280;22123;52.412;20.970;2024-03-25T10:58:04;99361.03;;;14.30;67.42
36062;BME280;22123;52.412;20.970;2024-03-25T11:00:30;99339.00;;;15.31;60.53
36062;BME280;22123;52.412;20.970;2024-03-25T11:02:58;99345.19;;;15.50;56.85
36062;BME280;22123;52.412;20.970;2024-03-25T11:05:25;99337.75;;;15.15;55.62
36062;BME280;22123;52.412;20.970;2024-03-25T11:07:51;99363.94;;;15.52;55.40
36062;BME280;22123;52.412;20.970;2024-03-25T11:10:17;99357.06;;;17.15;52.94
36062;BME280;22123;52.412;20.970;2024-03-25T11:12:42;99326.50;;;17.87;48.35
36062;BME280;22123;52.412;20.970;2024-03-25T11:15:09;99329.47;;;17.23;49.80
36062;BME280;22123;52.412;20.970;2024-03-25T11:17:36;99310.34;;;15.89;50.04
36062;BME280;22123;52.412;20.970;2024-03-25T11:20:13;99352.88;;;16.95;49.60
36062;BME280;22123;52.412;20.970;2024-03-25T11:22:52;99344.97;;;17.23;50.48
36062;BME280;22123;52.412;20.970;2024-03-25T11:25:20;99308.78;;;16.29;51.67
36062;BME280;22123;52.412;20.970;2024-03-25T11:27:47;99336.31;;;15.97;52.36
36062;BME280;22123;52.412;20.970;2024-03-25T11:30:14;99333.50;;;16.04;50.52
36062;BME280;22123;52.412;20.970;2024-03-25T11:35:09;99305.34;;;18.95;47.50
36062;BME280;22123;52.412;20.970;2024-03-25T11:37:42;99341.53;;;19.67;44.63
36062;BME280;22123;52.412;20.970;2024-03-25T11:40:09;99315.94;;;19.41;41.80
36062;BME280;22123;52.412;20.970;2024-03-25T11:42:35;99332.44;;;19.56;42.15
36062;BME280;22123;52.412;20.970;2024-03-25T11:45:04;99325.31;;;18.79;43.13
36062;BME280;22123;52.412;20.970;2024-03-25T11:47:30;99312.41;;;18.07;43.58
36062;BME280;22123;52.412;20.970;2024-03-25T11:49:56;99311.91;;;17.94;46.52
36062;BME280;22123;52.412;20.970;2024-03-25T11:52:23;99320.97;;;17.19;46.16
36062;BME280;22123;52.412;20.970;2024-03-25T11:54:55;99311.41;;;16.88;48.35
36062;BME280;22123;52.412;20.970;2024-03-25T11:57:22;99310.66;;;16.52;50.51
36062;BME280;22123;52.412;20.970;2024-03-25T11:59:48;99308.53;;;15.71;52.35
36062;BME280;22123;52.412;20.970;2024-03-25T12:02:18;99319.09;;;15.07;56.42
36062;BME280;22123;52.412;20.970;2024-03-25T12:04:44;99302.72;;;15.44;56.07
36062;BME280;22123;52.412;20.970;2024-03-25T12:07:14;99342.69;;;15.48;55.43
36062;BME280;22123;52.412;20.970;2024-03-25T12:09:41;99345.41;;;14.69;56.16
36062;BME280;22123;52.412;20.970;2024-03-25T12:12:07;99323.50;;;14.52;57.83
36062;BME280;22123;52.412;20.970;2024-03-25T12:14:33;99296.13;;;14.23;58.84
36062;BME280;22123;52.412;20.970;2024-03-25T12:17:00;99348.25;;;14.56;55.19
36062;BME280;22123;52.412;20.970;2024-03-25T12:19:26;99351.50;;;14.02;57.75
36062;BME280;22123;52.412;20.970;2024-03-25T12:21:58;99356.59;;;13.28;56.09
36062;BME280;22123;52.412;20.970;2024-03-25T12:24:24;99321.44;;;12.38;59.12
36062;BME280;22123;52.412;20.970;2024-03-25T12:26:51;99301.81;;;12.04;61.64
36062;BME280;22123;52.412;20.970;2024-03-25T12:29:17;99315.28;;;11.77;64.66
36062;BME280;22123;52.412;20.970;2024-03-25T12:31:42;99353.66;;;11.86;67.76
36062;BME280;22123;52.412;20.970;2024-03-25T12:34:14;99317.97;;;11.70;69.48
36062;BME280;22123;52.412;20.970;2024-03-25T12:36:40;99361.53;;;11.74;68.55
36062;BME280;22123;52.412;20.970;2024-03-25T12:39:15;99359.25;;;11.64;70.04
36062;BME280;22123;52.412;20.970;2024-03-25T12:41:41;99329.78;;;11.29;68.89
36062;BME280;22123;52.412;20.970;2024-03-25T12:44:07;99332.25;;;11.30;71.34
36062;BME280;22123;52.412;20.970;2024-03-25T12:46:32;99349.88;;;11.26;73.27
36062;BME280;22123;52.412;20.970;2024-03-25T12:48:59;99344.41;;;11.06;73.42
36062;BME280;22123;52.412;20.970;2024-03-25T12:51:24;99328.06;;;10.53;74.82